sensor_id;sensor_type;location;lat;lon;timestamp;P1;durP1;ratioP1;P2;durP2;ratioP2
35975;SDS011;22055;0.000;0.000;2022-07-18T00:02:09;0.80;;;0.80;;
35975;SDS011;22055;0.000;0.000;2022-07-18T00:04:38;0.80;;;0.80;;
35975;SDS011;22055;0.000;0.000;2022-07-18T00:07:07;1.50;;;1.40;;
35975;SDS011;22055;0.000;0.000;2022-07-18T00:09:38;1.10;;;1.10;;
35975;SDS011;22055;0.000;0.000;2022-07-18T00:12:07;1.00;;;1.00;;
35975;SDS011;22055;0.000;0.000;2022-07-18T00:14:35;0.80;;;0.80;;
35975;SDS011;22055;0.000;0.000;2022-07-18T00:17:04;1.42;;;1.25;;
35975;SDS011;22055;0.000;0.000;2022-07-18T00:19:32;1.60;;;1.52;;
35975;SDS011;22055;0.000;0.000;2022-07-18T00:21:59;0.98;;;0.98;;
35975;SDS011;22055;0.000;0.000;2022-07-18T00:24:28;1.15;;;1.15;;
35975;SDS011;22055;0.000;0.000;2022-07-18T00:26:58;0.80;;;0.80;;
35975;SDS011;22055;0.000;0.000;2022-07-18T00:29:26;0.70;;;0.70;;
35975;SDS011;22055;0.000;0.000;2022-07-18T00:31:54;0.68;;;0.68;;
35975;SDS011;22055;0.000;0.000;2022-07-18T00:34:23;0.98;;;0.98;;
35975;SDS011;22055;0.000;0.000;2022-07-18T00:36:52;1.42;;;1.33;;
35975;SDS011;22055;0.000;0.000;2022-07-18T00:39:21;0.93;;;0.93;;
35975;SDS011;22055;0.000;0.000;2022-07-18T00:41:57;0.82;;;0.82;;
35975;SDS011;22055;0.000;0.000;2022-07-18T00:44:29;1.45;;;1.35;;
35975;SDS011;22055;0.000;0.000;2022-07-18T00:47:00;1.17;;;1.17;;
35975;SDS011;22055;0.000;0.000;2022-07-18T00:49:28;1.30;;;1.30;;
35975;SDS011;22055;0.000;0.000;2022-07-18T00:51:55;0.80;;;0.80;;
35975;SDS011;22055;0.000;0.000;2022-07-18T00:54:23;0.90;;;0.90;;
35975;SDS011;22055;0.000;0.000;2022-07-18T00:56:51;1.35;;;1.35;;
35975;SDS011;22055;0.000;0.000;2022-07-18T00:59:19;1.00;;;1.00;;
35975;SDS011;22055;0.000;0.000;2022-07-18T01:01:46;1.50;;;1.40;;
35975;SDS011;22055;0.000;0.000;2022-07-18T01:04:18;1.33;;;1.33;;
35975;SDS011;22055;0.000;0.000;2022-07-18T01:06:47;1.20;;;1.20;;
35975;SDS011;22055;0.000;0.000;2022-07-18T01:09:15;0.80;;;0.80;;
35975;SDS011;22055;0.000;0.000;2022-07-18T01:11:44;0.90;;;0.90;;
35975;SDS011;22055;0.000;0.000;2022-07-18T01:14:13;1.88;;;1.77;;
35975;SDS011;22055;0.000;0.000;2022-07-18T01:16:42;1.60;;;1.50;;
35975;SDS011;22055;0.000;0.000;2022-07-18T01:19:10;1.63;;;1.52;;
35975;SDS011;22055;0.000;0.000;2022-07-18T01:21:38;0.70;;;0.70;;
35975;SDS011;22055;0.000;0.000;2022-07-18T01:24:07;1.50;;;1.50;;
35975;SDS011;22055;0.000;0.000;2022-07-18T01:26:36;0.80;;;0.80;;
35975;SDS011;22055;0.000;0.000;2022-07-18T01:29:05;0.77;;;0.77;;
35975;SDS011;22055;0.000;0.000;2022-07-18T01:31:33;0.93;;;0.93;;
35975;SDS011;22055;0.000;0.000;2022-07-18T01:34:00;1.17;;;1.17;;
35975;SDS011;22055;0.000;0.000;2022-07-18T01:36:28;0.63;;;0.63;;
35975;SDS011;22055;0.000;0.000;2022-07-18T01:39:00;0.82;;;0.82;;
35975;SDS011;22055;0.000;0.000;2022-07-18T01:41:28;0.82;;;0.82;;
35975;SDS011;22055;0.000;0.000;2022-07-18T01:43:56;0.90;;;0.90;;
35975;SDS011;22055;0.000;0.000;2022-07-18T01:46:24;1.23;;;1.23;;
35975;SDS011;22055;0.000;0.000;2022-07-18T01:48:52;0.80;;;0.80;;
35975;SDS011;22055;0.000;0.000;2022-07-18T01:51:19;1.38;;;1.38;;
35975;SDS011;22055;0.000;0.000;2022-07-18T01:53:53;0.70;;;0.70;;
35975;SDS011;22055;0.000;0.000;2022-07-18T01:56:25;1.00;;;1.00;;
35975;SDS011;22055;0.000;0.000;2022-07-18T01:58:53;1.20;;;1.20;;
35975;SDS011;22055;0.000;0.000;2022-07-18T02:01:20;1.15;;;1.15;;
35975;SDS011;22055;0.000;0.000;2022-07-18T02:03:48;0.80;;;0.80;;
35975;SDS011;22055;0.000;0.000;2022-07-18T02:06:19;1.33;;;1.33;;
35975;SDS011;22055;0.000;0.000;2022-07-18T02:08:48;0.70;;;0.70;;
35975;SDS011;22055;0.000;0.000;2022-07-18T02:11:15;1.02;;;0.95;;
35975;SDS011;22055;0.000;0.000;2022-07-18T02:13:43;1.58;;;1.50;;
35975;SDS011;22055;0.000;0.000;2022-07-18T02:16:11;0.70;;;0.70;;
35975;SDS011;22055;0.000;0.000;2022-07-18T02:18:38;1.02;;;1.02;;
35975;SDS011;22055;0.000;0.000;2022-07-18T02:21:07;0.70;;;0.70;;
35975;SDS011;22055;0.000;0.000;2022-07-18T02:23:35;0.85;;;0.85;;
35975;SDS011;22055;0.000;0.000;2022-07-18T02:26:03;0.60;;;0.60;;
35975;SDS011;22055;0.000;0.000;2022-07-18T02:28:30;0.75;;;0.75;;
35975;SDS011;22055;0.000;0.000;2022-07-18T02:30:58;0.70;;;0.70;;
35975;SDS011;22055;0.000;0.000;2022-07-18T02:33:27;0.70;;;0.70;;
35975;SDS011;22055;0.000;0.000;2022-07-18T02:35:56;1.25;;;1.25;;
35975;SDS011;22055;0.000;0.000;2022-07-18T02:38:24;0.80;;;0.80;;
35975;SDS011;22055;0.000;0.000;2022-07-18T02:40:52;0.70;;;0.70;;
35975;SDS011;22055;0.000;0.000;2022-07-18T02:43:19;0.75;;;0.75;;
35975;SDS011;22055;0.000;0.000;2022-07-18T02:45:47;0.98;;;0.98;;
35975;SDS011;22055;0.000;0.000;2022-07-18T02:48:15;0.88;;;0.88;;
35975;SDS011;22055;0.000;0.000;2022-07-18T02:50:42;1.38;;;1.38;;
35975;SDS011;22055;0.000;0.000;2022-07-18T02:53:10;0.88;;;0.88;;
35975;SDS011;22055;0.000;0.000;2022-07-18T02:55:37;1.40;;;1.40;;
35975;SDS011;22055;0.000;0.000;2022-07-18T02:58:06;0.80;;;0.80;;
35975;SDS011;22055;0.000;0.000;2022-07-18T03:00:35;1.52;;;1.40;;
35975;SDS011;22055;0.000;0.000;2022-07-18T03:03:05;1.45;;;1.40;;
35975;SDS011;22055;0.000;0.000;2022-07-18T03:05:34;1.33;;;1.33;;
35975;SDS011;22055;0.000;0.000;2022-07-18T03:08:02;1.20;;;1.20;;
35975;SDS011;22055;0.000;0.000;2022-07-18T03:10:33;0.60;;;0.60;;
35975;SDS011;22055;0.000;0.000;2022-07-18T03:13:17;0.45;;;0.45;;
35975;SDS011;22055;0.000;0.000;2022-07-18T03:15:47;0.80;;;0.80;;
35975;SDS011;22055;0.000;0.000;2022-07-18T03:18:20;0.80;;;0.80;;
35975;SDS011;22055;0.000;0.000;2022-07-18T03:21:11;0.85;;;0.85;;
35975;SDS011;22055;0.000;0.000;2022-07-18T03:23:44;0.65;;;0.65;;
35975;SDS011;22055;0.000;0.000;2022-07-18T03:26:17;0.80;;;0.80;;
35975;SDS011;22055;0.000;0.000;2022-07-18T03:28:57;0.80;;;0.80;;
35975;SDS011;22055;0.000;0.000;2022-07-18T03:31:27;0.68;;;0.68;;
35975;SDS011;22055;0.000;0.000;2022-07-18T03:33:59;0.60;;;0.60;;
35975;SDS011;22055;0.000;0.000;2022-07-18T03:36:30;0.75;;;0.75;;
35975;SDS011;22055;0.000;0.000;2022-07-18T03:39:04;0.73;;;0.73;;
35975;SDS011;22055;0.000;0.000;2022-07-18T03:41:35;0.60;;;0.60;;
35975;SDS011;22055;0.000;0.000;2022-07-18T03:44:03;0.60;;;0.60;;
35975;SDS011;22055;0.000;0.000;2022-07-18T03:46:32;0.60;;;0.60;;
35975;SDS011;22055;0.000;0.000;2022-07-18T03:49:03;0.70;;;0.70;;
35975;SDS011;22055;0.000;0.000;2022-07-18T03:51:31;0.80;;;0.80;;
35975;SDS011;22055;0.000;0.000;2022-07-18T03:53:59;0.70;;;0.70;;
35975;SDS011;22055;0.000;0.000;2022-07-18T03:56:32;0.60;;;0.60;;
35975;SDS011;22055;0.000;0.000;2022-07-18T03:59:01;0.85;;;0.80;;
35975;SDS011;22055;0.000;0.000;2022-07-18T04:01:29;0.50;;;0.50;;
35975;SDS011;22055;0.000;0.000;2022-07-18T04:03:59;0.70;;;0.70;;
35975;SDS011;22055;0.000;0.000;2022-07-18T04:06:30;0.70;;;0.70;;
35975;SDS011;22055;0.000;0.000;2022-07-18T04:08:59;0.50;;;0.50;;
35975;SDS011;22055;0.000;0.000;2022-07-18T04:11:28;3.20;;;0.70;;
35975;SDS011;22055;0.000;0.000;2022-07-18T04:13:59;0.60;;;0.60;;
35975;SDS011;22055;0.000;0.000;2022-07-18T04:16:29;0.50;;;0.50;;
35975;SDS011;22055;0.000;0.000;2022-07-18T04:18:59;1.63;;;0.68;;
35975;SDS011;22055;0.000;0.000;2022-07-18T04:21:29;0.68;;;0.60;;
35975;SDS011;22055;0.000;0.000;2022-07-18T04:24:00;1.38;;;0.70;;
35975;SDS011;22055;0.000;0.000;2022-07-18T04:26:31;3.63;;;0.70;;
35975;SDS011;22055;0.000;0.000;2022-07-18T04:28:59;1.92;;;0.90;;
35975;SDS011;22055;0.000;0.000;2022-07-18T04:31:28;1.13;;;0.70;;
35975;SDS011;22055;0.000;0.000;2022-07-18T04:34:01;3.20;;;0.80;;
35975;SDS011;22055;0.000;0.000;2022-07-18T04:36:31;3.63;;;1.00;;
35975;SDS011;22055;0.000;0.000;2022-07-18T04:39:05;0.93;;;0.70;;
35975;SDS011;22055;0.000;0.000;2022-07-18T04:41:34;0.70;;;0.70;;
35975;SDS011;22055;0.000;0.000;2022-07-18T04:44:10;0.95;;;0.80;;
35975;SDS011;22055;0.000;0.000;2022-07-18T04:46:39;1.33;;;0.70;;
35975;SDS011;22055;0.000;0.000;2022-07-18T04:49:12;2.15;;;0.70;;
35975;SDS011;22055;0.000;0.000;2022-07-18T04:51:40;2.05;;;0.95;;
35975;SDS011;22055;0.000;0.000;2022-07-18T04:54:12;1.63;;;0.80;;
35975;SDS011;22055;0.000;0.000;2022-07-18T04:56:44;1.95;;;0.68;;
35975;SDS011;22055;0.000;0.000;2022-07-18T04:59:18;3.45;;;1.02;;
35975;SDS011;22055;0.000;0.000;2022-07-18T05:01:48;0.80;;;0.80;;
35975;SDS011;22055;0.000;0.000;2022-07-18T05:04:19;0.50;;;0.50;;
35975;SDS011;22055;0.000;0.000;2022-07-18T05:06:52;1.58;;;0.90;;
35975;SDS011;22055;0.000;0.000;2022-07-18T05:09:21;0.80;;;0.80;;
35975;SDS011;22055;0.000;0.000;2022-07-18T05:12:08;0.80;;;0.80;;
35975;SDS011;22055;0.000;0.000;2022-07-18T05:14:40;2.83;;;0.93;;
35975;SDS011;22055;0.000;0.000;2022-07-18T05:17:09;2.25;;;0.80;;
35975;SDS011;22055;0.000;0.000;2022-07-18T05:19:38;0.80;;;0.80;;
35975;SDS011;22055;0.000;0.000;2022-07-18T05:22:06;1.20;;;0.65;;
35975;SDS011;22055;0.000;0.000;2022-07-18T05:24:43;0.98;;;0.80;;
35975;SDS011;22055;0.000;0.000;2022-07-18T05:27:15;3.60;;;0.90;;
35975;SDS011;22055;0.000;0.000;2022-07-18T05:29:44;2.17;;;1.10;;
35975;SDS011;22055;0.000;0.000;2022-07-18T05:32:22;4.95;;;1.10;;
35975;SDS011;22055;0.000;0.000;2022-07-18T05:34:50;5.28;;;1.60;;
35975;SDS011;22055;0.000;0.000;2022-07-18T05:37:20;4.25;;;1.10;;
35975;SDS011;22055;0.000;0.000;2022-07-18T05:39:58;3.25;;;1.05;;
35975;SDS011;22055;0.000;0.000;2022-07-18T05:42:32;3.13;;;0.90;;
35975;SDS011;22055;0.000;0.000;2022-07-18T05:45:07;1.15;;;0.77;;
35975;SDS011;22055;0.000;0.000;2022-07-18T05:47:36;3.38;;;1.00;;
35975;SDS011;22055;0.000;0.000;2022-07-18T05:50:11;6.90;;;1.00;;
35975;SDS011;22055;0.000;0.000;2022-07-18T05:52:41;2.88;;;1.00;;
35975;SDS011;22055;0.000;0.000;2022-07-18T05:55:09;1.33;;;0.85;;
35975;SDS011;22055;0.000;0.000;2022-07-18T05:57:38;1.92;;;0.75;;
35975;SDS011;22055;0.000;0.000;2022-07-18T06:00:08;1.00;;;0.90;;
35975;SDS011;22055;0.000;0.000;2022-07-18T06:05:47;1.63;;;1.15;;
35975;SDS011;22055;0.000;0.000;2022-07-18T06:08:15;4.75;;;1.30;;
35975;SDS011;22055;0.000;0.000;2022-07-18T06:10:43;4.05;;;0.93;;
35975;SDS011;22055;0.000;0.000;2022-07-18T06:13:11;2.38;;;1.02;;
35975;SDS011;22055;0.000;0.000;2022-07-18T06:15:40;1.95;;;1.20;;
35975;SDS011;22055;0.000;0.000;2022-07-18T06:18:13;3.20;;;1.20;;
35975;SDS011;22055;0.000;0.000;2022-07-18T06:20:44;4.35;;;1.15;;
35975;SDS011;22055;0.000;0.000;2022-07-18T06:23:14;2.60;;;0.98;;
35975;SDS011;22055;0.000;0.000;2022-07-18T06:25:44;1.85;;;1.10;;
35975;SDS011;22055;0.000;0.000;2022-07-18T06:28:14;2.38;;;0.98;;
35975;SDS011;22055;0.000;0.000;2022-07-18T06:30:44;3.25;;;1.02;;
35975;SDS011;22055;0.000;0.000;2022-07-18T06:33:13;2.45;;;0.90;;
35975;SDS011;22055;0.000;0.000;2022-07-18T06:35:44;5.63;;;1.00;;
35975;SDS011;22055;0.000;0.000;2022-07-18T06:38:15;1.55;;;1.02;;
35975;SDS011;22055;0.000;0.000;2022-07-18T06:40:45;2.25;;;1.00;;
35975;SDS011;22055;0.000;0.000;2022-07-18T06:43:18;3.15;;;1.40;;
35975;SDS011;22055;0.000;0.000;2022-07-18T06:45:46;1.40;;;1.10;;
35975;SDS011;22055;0.000;0.000;2022-07-18T06:48:16;1.60;;;1.13;;
35975;SDS011;22055;0.000;0.000;2022-07-18T06:50:49;1.33;;;0.90;;
35975;SDS011;22055;0.000;0.000;2022-07-18T06:53:24;14.93;;;1.10;;
35975;SDS011;22055;0.000;0.000;2022-07-18T06:55:57;2.58;;;1.10;;
35975;SDS011;22055;0.000;0.000;2022-07-18T06:58:34;1.83;;;1.02;;
35975;SDS011;22055;0.000;0.000;2022-07-18T07:01:03;4.90;;;1.27;;
35975;SDS011;22055;0.000;0.000;2022-07-18T07:03:34;8.77;;;1.20;;
35975;SDS011;22055;0.000;0.000;2022-07-18T07:06:02;8.90;;;1.70;;
35975;SDS011;22055;0.000;0.000;2022-07-18T07:08:32;6.57;;;1.58;;
35975;SDS011;22055;0.000;0.000;2022-07-18T07:11:00;3.00;;;1.30;;
35975;SDS011;22055;0.000;0.000;2022-07-18T07:13:29;4.07;;;1.23;;
35975;SDS011;22055;0.000;0.000;2022-07-18T07:15:58;6.80;;;1.10;;
35975;SDS011;22055;0.000;0.000;2022-07-18T07:18:27;6.45;;;1.40;;
35975;SDS011;22055;0.000;0.000;2022-07-18T07:21:03;4.03;;;1.08;;
35975;SDS011;22055;0.000;0.000;2022-07-18T07:23:32;4.30;;;1.08;;
35975;SDS011;22055;0.000;0.000;2022-07-18T07:26:06;4.30;;;1.20;;
35975;SDS011;22055;0.000;0.000;2022-07-18T07:28:35;7.30;;;1.55;;
35975;SDS011;22055;0.000;0.000;2022-07-18T07:31:08;2.58;;;1.10;;
35975;SDS011;22055;0.000;0.000;2022-07-18T07:33:39;5.35;;;1.75;;
35975;SDS011;22055;0.000;0.000;2022-07-18T07:36:11;3.97;;;1.30;;
35975;SDS011;22055;0.000;0.000;2022-07-18T07:38:39;5.03;;;1.35;;
35975;SDS011;22055;0.000;0.000;2022-07-18T07:41:09;3.33;;;1.33;;
35975;SDS011;22055;0.000;0.000;2022-07-18T07:43:39;5.22;;;1.42;;
35975;SDS011;22055;0.000;0.000;2022-07-18T07:46:07;7.38;;;1.60;;
35975;SDS011;22055;0.000;0.000;2022-07-18T07:48:39;7.13;;;1.20;;
35975;SDS011;22055;0.000;0.000;2022-07-18T07:51:08;6.32;;;1.33;;
35975;SDS011;22055;0.000;0.000;2022-07-18T07:53:37;3.95;;;1.13;;
35975;SDS011;22055;0.000;0.000;2022-07-18T07:56:07;7.25;;;1.70;;
35975;SDS011;22055;0.000;0.000;2022-07-18T07:58:36;6.88;;;1.33;;
35975;SDS011;22055;0.000;0.000;2022-07-18T08:01:06;5.85;;;1.20;;
35975;SDS011;22055;0.000;0.000;2022-07-18T08:06:26;7.13;;;1.67;;
35975;SDS011;22055;0.000;0.000;2022-07-18T08:08:54;2.58;;;1.60;;
35975;SDS011;22055;0.000;0.000;2022-07-18T08:11:24;3.08;;;1.20;;
35975;SDS011;22055;0.000;0.000;2022-07-18T08:13:57;4.05;;;1.17;;
35975;SDS011;22055;0.000;0.000;2022-07-18T08:16:27;6.00;;;1.52;;
35975;SDS011;22055;0.000;0.000;2022-07-18T08:18:58;4.93;;;1.30;;
35975;SDS011;22055;0.000;0.000;2022-07-18T08:21:27;4.03;;;1.50;;
35975;SDS011;22055;0.000;0.000;2022-07-18T08:23:58;6.00;;;1.45;;
35975;SDS011;22055;0.000;0.000;2022-07-18T08:26:26;7.28;;;1.88;;
35975;SDS011;22055;0.000;0.000;2022-07-18T08:28:56;3.50;;;1.50;;
35975;SDS011;22055;0.000;0.000;2022-07-18T08:31:30;6.32;;;1.70;;
35975;SDS011;22055;0.000;0.000;2022-07-18T08:34:01;6.00;;;1.48;;
35975;SDS011;22055;0.000;0.000;2022-07-18T08:36:31;7.75;;;1.38;;
35975;SDS011;22055;0.000;0.000;2022-07-18T08:39:00;5.40;;;1.40;;
35975;SDS011;22055;0.000;0.000;2022-07-18T08:41:31;2.85;;;1.10;;
35975;SDS011;22055;0.000;0.000;2022-07-18T08:44:01;5.95;;;1.42;;
35975;SDS011;22055;0.000;0.000;2022-07-18T08:46:30;6.75;;;1.70;;
35975;SDS011;22055;0.000;0.000;2022-07-18T08:49:00;9.48;;;2.08;;
35975;SDS011;22055;0.000;0.000;2022-07-18T08:51:30;8.30;;;1.85;;
35975;SDS011;22055;0.000;0.000;2022-07-18T08:54:02;5.35;;;1.20;;
35975;SDS011;22055;0.000;0.000;2022-07-18T08:56:32;6.07;;;1.70;;
35975;SDS011;22055;0.000;0.000;2022-07-18T08:59:02;3.40;;;1.40;;
35975;SDS011;22055;0.000;0.000;2022-07-18T09:01:36;7.78;;;1.52;;
35975;SDS011;22055;0.000;0.000;2022-07-18T09:04:04;3.60;;;1.23;;
35975;SDS011;22055;0.000;0.000;2022-07-18T09:06:50;6.95;;;1.85;;
35975;SDS011;22055;0.000;0.000;2022-07-18T09:09:25;11.17;;;1.63;;
35975;SDS011;22055;0.000;0.000;2022-07-18T09:12:05;4.65;;;1.40;;
35975;SDS011;22055;0.000;0.000;2022-07-18T09:14:43;4.85;;;1.45;;
35975;SDS011;22055;0.000;0.000;2022-07-18T09:17:21;7.50;;;1.48;;
35975;SDS011;22055;0.000;0.000;2022-07-18T09:20:04;4.20;;;1.42;;
35975;SDS011;22055;0.000;0.000;2022-07-18T09:22:35;4.15;;;1.40;;
35975;SDS011;22055;0.000;0.000;2022-07-18T09:25:12;6.05;;;1.70;;
35975;SDS011;22055;0.000;0.000;2022-07-18T09:27:49;3.28;;;1.23;;
35975;SDS011;22055;0.000;0.000;2022-07-18T09:30:22;7.97;;;1.38;;
35975;SDS011;22055;0.000;0.000;2022-07-18T09:32:54;3.20;;;1.20;;
35975;SDS011;22055;0.000;0.000;2022-07-18T09:35:34;3.38;;;1.27;;
35975;SDS011;22055;0.000;0.000;2022-07-18T09:38:09;6.80;;;1.45;;
35975;SDS011;22055;0.000;0.000;2022-07-18T09:40:49;4.28;;;1.38;;
35975;SDS011;22055;0.000;0.000;2022-07-18T09:43:24;4.07;;;1.60;;
35975;SDS011;22055;0.000;0.000;2022-07-18T09:45:54;7.40;;;1.42;;
35975;SDS011;22055;0.000;0.000;2022-07-18T09:51:05;7.13;;;1.60;;
35975;SDS011;22055;0.000;0.000;2022-07-18T09:53:40;4.90;;;1.83;;
35975;SDS011;22055;0.000;0.000;2022-07-18T09:56:13;7.45;;;1.50;;
35975;SDS011;22055;0.000;0.000;2022-07-18T09:58:56;2.78;;;1.13;;
35975;SDS011;22055;0.000;0.000;2022-07-18T10:01:26;7.10;;;1.80;;
35975;SDS011;22055;0.000;0.000;2022-07-18T10:03:55;3.13;;;1.17;;
35975;SDS011;22055;0.000;0.000;2022-07-18T10:06:30;3.10;;;1.40;;
35975;SDS011;22055;0.000;0.000;2022-07-18T10:08:59;2.45;;;1.40;;
35975;SDS011;22055;0.000;0.000;2022-07-18T10:11:28;4.47;;;1.77;;
35975;SDS011;22055;0.000;0.000;2022-07-18T10:13:58;6.63;;;1.55;;
35975;SDS011;22055;0.000;0.000;2022-07-18T10:16:28;3.83;;;1.50;;
35975;SDS011;22055;0.000;0.000;2022-07-18T10:45:00;7.97;;;2.00;;
35975;SDS011;22055;0.000;0.000;2022-07-18T10:47:30;7.20;;;1.55;;
35975;SDS011;22055;0.000;0.000;2022-07-18T11:00:04;6.10;;;2.28;;
35975;SDS011;22055;0.000;0.000;2022-07-18T11:02:36;6.85;;;1.75;;
35975;SDS011;22055;0.000;0.000;2022-07-18T11:05:51;4.97;;;1.38;;
35975;SDS011;22055;0.000;0.000;2022-07-18T11:16:04;6.45;;;1.48;;
35975;SDS011;22055;0.000;0.000;2022-07-18T11:21:27;4.13;;;1.40;;
35975;SDS011;22055;0.000;0.000;2022-07-18T11:24:01;4.00;;;1.70;;
35975;SDS011;22055;0.000;0.000;2022-07-18T11:26:31;6.43;;;1.40;;
35975;SDS011;22055;0.000;0.000;2022-07-18T11:29:01;5.32;;;2.00;;
35975;SDS011;22055;0.000;0.000;2022-07-18T11:34:30;7.00;;;1.85;;
35975;SDS011;22055;0.000;0.000;2022-07-18T11:36:59;5.93;;;1.55;;
35975;SDS011;22055;0.000;0.000;2022-07-18T11:39:30;4.28;;;1.48;;
35975;SDS011;22055;0.000;0.000;2022-07-18T11:42:05;4.75;;;1.60;;
35975;SDS011;22055;0.000;0.000;2022-07-18T11:44:35;5.72;;;1.60;;
35975;SDS011;22055;0.000;0.000;2022-07-18T11:47:11;5.22;;;1.75;;
35975;SDS011;22055;0.000;0.000;2022-07-18T11:49:53;3.08;;;1.45;;
35975;SDS011;22055;0.000;0.000;2022-07-18T11:52:28;7.70;;;2.03;;
35975;SDS011;22055;0.000;0.000;2022-07-18T11:55:01;4.35;;;1.67;;
35975;SDS011;22055;0.000;0.000;2022-07-18T11:57:37;3.30;;;1.40;;
35975;SDS011;22055;0.000;0.000;2022-07-18T12:00:22;7.40;;;1.75;;
35975;SDS011;22055;0.000;0.000;2022-07-18T12:02:53;3.97;;;1.50;;
35975;SDS011;22055;0.000;0.000;2022-07-18T12:05:40;5.72;;;1.70;;
35975;SDS011;22055;0.000;0.000;2022-07-18T12:13:44;5.55;;;1.70;;
35975;SDS011;22055;0.000;0.000;2022-07-18T12:16:24;11.73;;;1.65;;
35975;SDS011;22055;0.000;0.000;2022-07-18T12:18:55;5.05;;;1.80;;
35975;SDS011;22055;0.000;0.000;2022-07-18T12:21:50;7.60;;;1.60;;
35975;SDS011;22055;0.000;0.000;2022-07-18T12:24:38;7.82;;;1.60;;
35975;SDS011;22055;0.000;0.000;2022-07-18T12:27:33;7.10;;;1.90;;
35975;SDS011;22055;0.000;0.000;2022-07-18T12:32:43;5.53;;;1.65;;
35975;SDS011;22055;0.000;0.000;2022-07-18T12:35:14;3.47;;;1.52;;
35975;SDS011;22055;0.000;0.000;2022-07-18T12:40:54;4.25;;;1.58;;
35975;SDS011;22055;0.000;0.000;2022-07-18T12:43:36;5.10;;;1.70;;
35975;SDS011;22055;0.000;0.000;2022-07-18T12:46:09;4.32;;;1.58;;
35975;SDS011;22055;0.000;0.000;2022-07-18T12:48:36;3.87;;;1.43;;
35975;SDS011;22055;0.000;0.000;2022-07-18T12:51:05;4.65;;;1.52;;
35975;SDS011;22055;0.000;0.000;2022-07-18T12:53:35;6.40;;;1.80;;
35975;SDS011;22055;0.000;0.000;2022-07-18T12:56:18;7.90;;;1.65;;
35975;SDS011;22055;0.000;0.000;2022-07-18T12:58:51;6.25;;;2.30;;
35975;SDS011;22055;0.000;0.000;2022-07-18T13:01:19;5.43;;;1.60;;
35975;SDS011;22055;0.000;0.000;2022-07-18T13:03:48;7.10;;;1.70;;
35975;SDS011;22055;0.000;0.000;2022-07-18T13:06:16;5.32;;;1.73;;
35975;SDS011;22055;0.000;0.000;2022-07-18T13:08:48;3.95;;;1.60;;
35975;SDS011;22055;0.000;0.000;2022-07-18T13:11:16;4.70;;;1.60;;
35975;SDS011;22055;0.000;0.000;2022-07-18T13:13:47;6.70;;;1.73;;
35975;SDS011;22055;0.000;0.000;2022-07-18T13:16:18;5.57;;;1.73;;
35975;SDS011;22055;0.000;0.000;2022-07-18T13:18:47;6.88;;;1.88;;
35975;SDS011;22055;0.000;0.000;2022-07-18T13:21:14;2.63;;;1.30;;
35975;SDS011;22055;0.000;0.000;2022-07-18T13:23:44;3.60;;;1.50;;
35975;SDS011;22055;0.000;0.000;2022-07-18T13:26:12;7.65;;;1.98;;
35975;SDS011;22055;0.000;0.000;2022-07-18T13:28:42;5.60;;;1.40;;
35975;SDS011;22055;0.000;0.000;2022-07-18T13:31:11;6.07;;;1.85;;
35975;SDS011;22055;0.000;0.000;2022-07-18T13:33:40;7.93;;;1.70;;
35975;SDS011;22055;0.000;0.000;2022-07-18T13:38:44;7.38;;;1.60;;
35975;SDS011;22055;0.000;0.000;2022-07-18T13:41:18;6.68;;;1.75;;
35975;SDS011;22055;0.000;0.000;2022-07-18T13:43:48;6.55;;;1.63;;
35975;SDS011;22055;0.000;0.000;2022-07-18T13:46:20;8.10;;;1.85;;
35975;SDS011;22055;0.000;0.000;2022-07-18T13:48:55;8.75;;;1.52;;
35975;SDS011;22055;0.000;0.000;2022-07-18T13:51:24;5.22;;;1.65;;
35975;SDS011;22055;0.000;0.000;2022-07-18T13:53:53;7.82;;;1.63;;
35975;SDS011;22055;0.000;0.000;2022-07-18T13:56:22;4.80;;;1.70;;
35975;SDS011;22055;0.000;0.000;2022-07-18T13:58:50;6.00;;;1.80;;
35975;SDS011;22055;0.000;0.000;2022-07-18T14:01:20;9.10;;;2.42;;
35975;SDS011;22055;0.000;0.000;2022-07-18T14:03:49;9.43;;;1.80;;
35975;SDS011;22055;0.000;0.000;2022-07-18T14:06:18;3.67;;;1.60;;
35975;SDS011;22055;0.000;0.000;2022-07-18T14:08:54;7.32;;;1.40;;
35975;SDS011;22055;0.000;0.000;2022-07-18T14:11:28;4.95;;;1.95;;
35975;SDS011;22055;0.000;0.000;2022-07-18T14:13:58;6.35;;;1.83;;
35975;SDS011;22055;0.000;0.000;2022-07-18T14:16:27;7.40;;;1.85;;
35975;SDS011;22055;0.000;0.000;2022-07-18T14:18:55;7.45;;;1.70;;
35975;SDS011;22055;0.000;0.000;2022-07-18T14:21:23;4.95;;;1.80;;
35975;SDS011;22055;0.000;0.000;2022-07-18T14:23:55;10.68;;;1.90;;
35975;SDS011;22055;0.000;0.000;2022-07-18T14:26:25;16.92;;;2.05;;
35975;SDS011;22055;0.000;0.000;2022-07-18T14:28:53;7.47;;;2.00;;
35975;SDS011;22055;0.000;0.000;2022-07-18T14:31:22;7.50;;;1.80;;
35975;SDS011;22055;0.000;0.000;2022-07-18T14:33:50;11.20;;;1.85;;
35975;SDS011;22055;0.000;0.000;2022-07-18T14:36:19;8.00;;;1.50;;
35975;SDS011;22055;0.000;0.000;2022-07-18T14:38:52;10.52;;;1.58;;
35975;SDS011;22055;0.000;0.000;2022-07-18T14:41:22;5.90;;;1.65;;
35975;SDS011;22055;0.000;0.000;2022-07-18T14:43:51;5.10;;;1.70;;
35975;SDS011;22055;0.000;0.000;2022-07-18T14:49:35;4.00;;;1.88;;
35975;SDS011;22055;0.000;0.000;2022-07-18T14:52:04;4.90;;;1.90;;
35975;SDS011;22055;0.000;0.000;2022-07-18T14:54:31;4.55;;;1.63;;
35975;SDS011;22055;0.000;0.000;2022-07-18T14:57:04;3.15;;;1.58;;
35975;SDS011;22055;0.000;0.000;2022-07-18T14:59:35;10.30;;;1.88;;
35975;SDS011;22055;0.000;0.000;2022-07-18T15:02:06;5.35;;;1.88;;
35975;SDS011;22055;0.000;0.000;2022-07-18T15:04:36;4.88;;;1.80;;
35975;SDS011;22055;0.000;0.000;2022-07-18T15:07:04;6.15;;;1.90;;
35975;SDS011;22055;0.000;0.000;2022-07-18T15:09:32;6.00;;;1.70;;
35975;SDS011;22055;0.000;0.000;2022-07-18T15:12:01;6.57;;;2.15;;
35975;SDS011;22055;0.000;0.000;2022-07-18T15:14:31;7.88;;;2.03;;
35975;SDS011;22055;0.000;0.000;2022-07-18T15:17:01;8.35;;;1.90;;
35975;SDS011;22055;0.000;0.000;2022-07-18T15:19:39;5.20;;;2.00;;
35975;SDS011;22055;0.000;0.000;2022-07-18T15:22:06;8.80;;;2.10;;
35975;SDS011;22055;0.000;0.000;2022-07-18T15:24:37;4.72;;;1.70;;
35975;SDS011;22055;0.000;0.000;2022-07-18T15:27:12;3.85;;;1.48;;
35975;SDS011;22055;0.000;0.000;2022-07-18T15:29:39;4.10;;;1.60;;
35975;SDS011;22055;0.000;0.000;2022-07-18T15:32:08;5.45;;;1.77;;
35975;SDS011;22055;0.000;0.000;2022-07-18T15:34:38;6.65;;;1.70;;
35975;SDS011;22055;0.000;0.000;2022-07-18T15:37:06;4.38;;;1.80;;
35975;SDS011;22055;0.000;0.000;2022-07-18T15:39:34;9.25;;;2.33;;
35975;SDS011;22055;0.000;0.000;2022-07-18T15:42:02;5.95;;;1.70;;
35975;SDS011;22055;0.000;0.000;2022-07-18T15:44:32;8.73;;;2.20;;
35975;SDS011;22055;0.000;0.000;2022-07-18T15:47:07;6.22;;;1.92;;
35975;SDS011;22055;0.000;0.000;2022-07-18T15:49:35;6.18;;;1.60;;
35975;SDS011;22055;0.000;0.000;2022-07-18T15:52:05;9.75;;;2.15;;
35975;SDS011;22055;0.000;0.000;2022-07-18T15:54:35;5.90;;;1.73;;
35975;SDS011;22055;0.000;0.000;2022-07-18T15:57:04;6.20;;;1.70;;
35975;SDS011;22055;0.000;0.000;2022-07-18T15:59:35;6.82;;;2.00;;
35975;SDS011;22055;0.000;0.000;2022-07-18T16:02:10;8.75;;;1.77;;
35975;SDS011;22055;0.000;0.000;2022-07-18T16:04:39;7.55;;;1.88;;
35975;SDS011;22055;0.000;0.000;2022-07-18T16:07:10;5.07;;;2.53;;
35975;SDS011;22055;0.000;0.000;2022-07-18T16:09:40;6.32;;;1.85;;
35975;SDS011;22055;0.000;0.000;2022-07-18T16:12:08;8.07;;;1.98;;
35975;SDS011;22055;0.000;0.000;2022-07-18T16:14:38;6.13;;;1.95;;
35975;SDS011;22055;0.000;0.000;2022-07-18T16:17:05;9.43;;;2.45;;
35975;SDS011;22055;0.000;0.000;2022-07-18T16:19:32;7.43;;;1.95;;
35975;SDS011;22055;0.000;0.000;2022-07-18T16:22:00;7.97;;;1.70;;
35975;SDS011;22055;0.000;0.000;2022-07-18T16:24:30;8.02;;;1.85;;
35975;SDS011;22055;0.000;0.000;2022-07-18T16:26:58;8.15;;;2.08;;
35975;SDS011;22055;0.000;0.000;2022-07-18T16:29:27;3.78;;;2.00;;
35975;SDS011;22055;0.000;0.000;2022-07-18T16:31:55;8.43;;;2.20;;
35975;SDS011;22055;0.000;0.000;2022-07-18T16:34:23;7.75;;;1.98;;
35975;SDS011;22055;0.000;0.000;2022-07-18T16:36:52;7.53;;;2.17;;
35975;SDS011;22055;0.000;0.000;2022-07-18T16:39:23;6.63;;;1.77;;